sensor_id;sensor_type;location;lat;lon;timestamp;pressure;altitude;pressure_sealevel;temperature;humidity
81107;BME280;70588;53.172;8.620;2023-07-29T00:00:35;100484.06;;;23.39;64.15
81107;BME280;70588;53.172;8.620;2023-07-29T00:03:01;100495.34;;;23.37;63.79
81107;BME280;70588;53.172;8.620;2023-07-29T00:05:26;100496.47;;;23.36;64.37
81107;BME280;70588;53.172;8.620;2023-07-29T00:07:52;100498.97;;;23.33;64.19
81107;BME280;70588;53.172;8.620;2023-07-29T00:10:17;100487.41;;;23.30;63.91
81107;BME280;70588;53.172;8.620;2023-07-29T00:12:43;100481.09;;;23.30;64.27
81107;BME280;70588;53.172;8.620;2023-07-29T00:15:08;100473.09;;;23.28;64.02
81107;BME280;70588;53.172;8.620;2023-07-29T00:17:34;100477.00;;;23.27;63.92
81107;BME280;70588;53.172;8.620;2023-07-29T00:19:59;100466.78;;;23.28;63.87
81107;BME280;70588;53.172;8.620;2023-07-29T00:22:25;100465.13;;;23.27;63.83
81107;BME280;70588;53.172;8.620;2023-07-29T00:24:54;100464.28;;;23.32;63.61
81107;BME280;70588;53.172;8.620;2023-07-29T00:27:20;100462.69;;;23.25;63.97
81107;BME280;70588;53.172;8.620;2023-07-29T00:29:46;100454.97;;;23.22;63.66
81107;BME280;70588;53.172;8.620;2023-07-29T00:32:12;100442.63;;;23.20;63.92
81107;BME280;70588;53.172;8.620;2023-07-29T00:34:37;100452.78;;;23.19;63.94
81107;BME280;70588;53.172;8.620;2023-07-29T00:37:02;100452.25;;;23.17;63.63
81107;BME280;70588;53.172;8.620;2023-07-29T00:39:28;100458.06;;;23.16;63.62
81107;BME280;70588;53.172;8.620;2023-07-29T00:41:53;100448.41;;;23.13;63.58
81107;BME280;70588;53.172;8.620;2023-07-29T00:44:19;100451.75;;;23.10;63.34
81107;BME280;70588;53.172;8.620;2023-07-29T00:46:50;100460.28;;;23.14;63.64
81107;BME280;70588;53.172;8.620;2023-07-29T00:49:15;100448.22;;;23.04;63.53
81107;BME280;70588;53.172;8.620;2023-07-29T00:51:41;100446.00;;;23.01;63.58
81107;BME280;70588;53.172;8.620;2023-07-29T00:54:07;100448.50;;;22.98;63.82
81107;BME280;70588;53.172;8.620;2023-07-29T00:56:32;100451.00;;;22.94;63.60
81107;BME280;70588;53.172;8.620;2023-07-29T00:58:58;100446.88;;;22.92;63.83
81107;BME280;70588;53.172;8.620;2023-07-29T01:01:30;100454.59;;;22.89;63.68
81107;BME280;70588;53.172;8.620;2023-07-29T01:03:56;100447.72;;;22.87;63.85
81107;BME280;70588;53.172;8.620;2023-07-29T01:09:44;100453.75;;;22.94;63.45
81107;BME280;70588;53.172;8.620;2023-07-29T01:12:24;100457.09;;;22.86;63.50
81107;BME280;70588;53.172;8.620;2023-07-29T01:15:03;100457.38;;;22.84;63.35
81107;BME280;70588;53.172;8.620;2023-07-29T01:17:43;100456.81;;;22.82;64.01
81107;BME280;70588;53.172;8.620;2023-07-29T01:20:15;100455.19;;;22.81;64.10
81107;BME280;70588;53.172;8.620;2023-07-29T01:22:41;100453.00;;;22.73;64.03
81107;BME280;70588;53.172;8.620;2023-07-29T01:25:07;100453.00;;;22.73;63.86
81107;BME280;70588;53.172;8.620;2023-07-29T01:27:33;100454.94;;;22.73;64.11
81107;BME280;70588;53.172;8.620;2023-07-29T01:29:58;100450.25;;;22.73;63.82
81107;BME280;70588;53.172;8.620;2023-07-29T01:32:40;100451.59;;;22.81;63.68
81107;BME280;70588;53.172;8.620;2023-07-29T01:37:55;100442.53;;;22.80;64.12
81107;BME280;70588;53.172;8.620;2023-07-29T01:40:26;100443.13;;;22.77;64.07
81107;BME280;70588;53.172;8.620;2023-07-29T01:42:52;100437.63;;;22.72;64.11
81107;BME280;70588;53.172;8.620;2023-07-29T01:45:18;100431.31;;;22.72;64.00
81107;BME280;70588;53.172;8.620;2023-07-29T01:47:44;100430.47;;;22.71;64.03
81107;BME280;70588;53.172;8.620;2023-07-29T01:50:09;100431.84;;;22.68;64.02
81107;BME280;70588;53.172;8.620;2023-07-29T01:52:35;100431.84;;;22.68;64.04
81107;BME280;70588;53.172;8.620;2023-07-29T01:55:01;100430.22;;;22.67;64.35
81107;BME280;70588;53.172;8.620;2023-07-29T01:57:27;100431.31;;;22.66;64.21
81107;BME280;70588;53.172;8.620;2023-07-29T01:59:52;100428.56;;;22.66;64.14
81107;BME280;70588;53.172;8.620;2023-07-29T02:02:17;100426.94;;;22.65;64.50
81107;BME280;70588;53.172;8.620;2023-07-29T02:04:43;100421.97;;;22.62;64.13
81107;BME280;70588;53.172;8.620;2023-07-29T02:07:10;100428.31;;;22.63;64.29
81107;BME280;70588;53.172;8.620;2023-07-29T02:09:35;100421.97;;;22.62;64.53
81107;BME280;70588;53.172;8.620;2023-07-29T02:12:01;100426.13;;;22.60;64.36
81107;BME280;70588;53.172;8.620;2023-07-29T02:14:26;100426.41;;;22.58;64.34
81107;BME280;70588;53.172;8.620;2023-07-29T02:16:51;100416.53;;;22.57;64.21
81107;BME280;70588;53.172;8.620;2023-07-29T02:19:17;100420.34;;;22.56;64.11
81107;BME280;70588;53.172;8.620;2023-07-29T02:21:42;100418.72;;;22.55;64.58
81107;BME280;70588;53.172;8.620;2023-07-29T02:24:08;100413.50;;;22.54;64.50
81107;BME280;70588;53.172;8.620;2023-07-29T02:26:33;100412.66;;;22.53;64.51
81107;BME280;70588;53.172;8.620;2023-07-29T02:28:59;100410.50;;;22.50;64.39
81107;BME280;70588;53.172;8.620;2023-07-29T02:31:25;100409.66;;;22.49;64.05
81107;BME280;70588;53.172;8.620;2023-07-29T02:33:51;100416.25;;;22.48;64.54
81107;BME280;70588;53.172;8.620;2023-07-29T02:36:17;100412.97;;;22.46;64.48
81107;BME280;70588;53.172;8.620;2023-07-29T02:38:43;100415.19;;;22.44;64.44
81107;BME280;70588;53.172;8.620;2023-07-29T02:41:09;100409.13;;;22.42;64.65
81107;BME280;70588;53.172;8.620;2023-07-29T02:43:35;100409.41;;;22.41;64.28
81107;BME280;70588;53.172;8.620;2023-07-29T02:46:02;100404.50;;;22.38;64.42
81107;BME280;70588;53.172;8.620;2023-07-29T02:48:28;100401.19;;;22.36;64.37
81107;BME280;70588;53.172;8.620;2023-07-29T02:50:54;100411.38;;;22.35;64.43
81107;BME280;70588;53.172;8.620;2023-07-29T02:53:19;100408.38;;;22.32;64.24
81107;BME280;70588;53.172;8.620;2023-07-29T02:55:45;100402.31;;;22.29;64.54
81107;BME280;70588;53.172;8.620;2023-07-29T02:58:10;100404.53;;;22.27;64.24
81107;BME280;70588;53.172;8.620;2023-07-29T03:00:35;100402.06;;;22.26;64.48
81107;BME280;70588;53.172;8.620;2023-07-29T03:03:01;100392.16;;;22.25;64.63
81107;BME280;70588;53.172;8.620;2023-07-29T03:05:29;100399.28;;;22.31;64.28
81107;BME280;70588;53.172;8.620;2023-07-29T03:07:55;100397.06;;;22.23;64.29
81107;BME280;70588;53.172;8.620;2023-07-29T03:10:20;100394.63;;;22.21;64.26
81107;BME280;70588;53.172;8.620;2023-07-29T03:12:46;100401.22;;;22.20;64.72
81107;BME280;70588;53.172;8.620;2023-07-29T03:15:12;100408.09;;;22.18;64.26
81107;BME280;70588;53.172;8.620;2023-07-29T03:17:37;100415.00;;;22.15;64.71
81107;BME280;70588;53.172;8.620;2023-07-29T03:20:03;100406.22;;;22.13;64.31
81107;BME280;70588;53.172;8.620;2023-07-29T03:22:28;100422.97;;;22.11;64.63
81107;BME280;70588;53.172;8.620;2023-07-29T03:24:53;100416.66;;;22.11;65.03
81107;BME280;70588;53.172;8.620;2023-07-29T03:27:19;100417.19;;;22.08;64.95
81107;BME280;70588;53.172;8.620;2023-07-29T03:29:44;100416.66;;;22.06;64.44
81107;BME280;70588;53.172;8.620;2023-07-29T03:32:11;100422.97;;;22.06;64.74
81107;BME280;70588;53.172;8.620;2023-07-29T03:34:36;100420.78;;;22.03;64.85
81107;BME280;70588;53.172;8.620;2023-07-29T03:37:02;100416.38;;;22.02;64.61
81107;BME280;70588;53.172;8.620;2023-07-29T03:39:27;100423.00;;;22.01;64.42
81107;BME280;70588;53.172;8.620;2023-07-29T03:41:52;100416.66;;;22.01;64.91
81107;BME280;70588;53.172;8.620;2023-07-29T03:44:18;100421.34;;;22.00;64.83
81107;BME280;70588;53.172;8.620;2023-07-29T03:46:44;100416.66;;;22.01;65.01
81107;BME280;70588;53.172;8.620;2023-07-29T03:49:10;100415.03;;;22.00;65.02
81107;BME280;70588;53.172;8.620;2023-07-29T03:51:35;100411.16;;;22.01;65.14
81107;BME280;70588;53.172;8.620;2023-07-29T03:54:00;100402.91;;;22.01;64.64
81107;BME280;70588;53.172;8.620;2023-07-29T03:56:26;100403.47;;;22.03;64.97
81107;BME280;70588;53.172;8.620;2023-07-29T03:58:52;100388.91;;;22.02;64.59
81107;BME280;70588;53.172;8.620;2023-07-29T04:01:17;100393.00;;;22.05;64.61
81107;BME280;70588;53.172;8.620;2023-07-29T04:03:44;100392.72;;;22.06;64.70
81107;BME280;70588;53.172;8.620;2023-07-29T04:06:09;100386.41;;;22.06;64.12
81107;BME280;70588;53.172;8.620;2023-07-29T04:08:34;100390.25;;;22.05;64.55
81107;BME280;70588;53.172;8.620;2023-07-29T04:11:00;100398.50;;;22.05;64.48
81107;BME280;70588;53.172;8.620;2023-07-29T04:13:25;100399.63;;;22.04;64.23
81107;BME280;70588;53.172;8.620;2023-07-29T04:15:50;100391.66;;;22.02;64.49
81107;BME280;70588;53.172;8.620;2023-07-29T04:18:16;100391.91;;;22.01;64.48
81107;BME280;70588;53.172;8.620;2023-07-29T04:20:41;100389.16;;;22.01;64.07
81107;BME280;70588;53.172;8.620;2023-07-29T04:23:07;100389.47;;;21.99;64.28
81107;BME280;70588;53.172;8.620;2023-07-29T04:25:32;100394.13;;;21.99;64.25
81107;BME280;70588;53.172;8.620;2023-07-29T04:27:57;100391.69;;;21.97;64.08
81107;BME280;70588;53.172;8.620;2023-07-29T04:30:23;100397.44;;;21.96;64.35
81107;BME280;70588;53.172;8.620;2023-07-29T04:32:48;100401.00;;;21.96;64.43
81107;BME280;70588;53.172;8.620;2023-07-29T04:35:15;100406.22;;;21.98;64.29
81107;BME280;70588;53.172;8.620;2023-07-29T04:37:40;100397.72;;;21.99;64.31
81107;BME280;70588;53.172;8.620;2023-07-29T04:40:06;100394.66;;;22.01;64.33
81107;BME280;70588;53.172;8.620;2023-07-29T04:42:32;100394.41;;;22.02;64.39
81107;BME280;70588;53.172;8.620;2023-07-29T04:44:57;100394.94;;;22.04;64.38
81107;BME280;70588;53.172;8.620;2023-07-29T04:47:23;100391.91;;;22.06;64.38
81107;BME280;70588;53.172;8.620;2023-07-29T04:49:48;100399.91;;;22.07;64.39
81107;BME280;70588;53.172;8.620;2023-07-29T04:52:14;100390.81;;;22.07;64.59
81107;BME280;70588;53.172;8.620;2023-07-29T04:54:40;100381.47;;;22.08;64.50
81107;BME280;70588;53.172;8.620;2023-07-29T04:57:06;100375.69;;;22.09;64.49
81107;BME280;70588;53.172;8.620;2023-07-29T04:59:31;100374.84;;;22.14;64.43
81107;BME280;70588;53.172;8.620;2023-07-29T05:01:56;100363.56;;;22.16;64.42
81107;BME280;70588;53.172;8.620;2023-07-29T05:04:22;100358.03;;;22.21;64.30
81107;BME280;70588;53.172;8.620;2023-07-29T05:06:48;100359.16;;;22.25;64.42
81107;BME280;70588;53.172;8.620;2023-07-29T05:09:17;100366.84;;;22.33;64.72
81107;BME280;70588;53.172;8.620;2023-07-29T05:11:43;100360.22;;;22.34;64.39
81107;BME280;70588;53.172;8.620;2023-07-29T05:14:14;100364.03;;;22.43;64.44
81107;BME280;70588;53.172;8.620;2023-07-29T05:16:40;100364.53;;;22.50;64.32
81107;BME280;70588;53.172;8.620;2023-07-29T05:19:05;100365.06;;;22.58;64.47
81107;BME280;70588;53.172;8.620;2023-07-29T05:21:30;100366.41;;;22.65;64.28
81107;BME280;70588;53.172;8.620;2023-07-29T05:23:56;100358.09;;;22.70;63.91
81107;BME280;70588;53.172;8.620;2023-07-29T05:26:22;100359.19;;;22.75;63.72
81107;BME280;70588;53.172;8.620;2023-07-29T05:28:48;100353.13;;;22.78;63.80
81107;BME280;70588;53.172;8.620;2023-07-29T05:31:13;100345.41;;;22.80;64.01
81107;BME280;70588;53.172;8.620;2023-07-29T05:33:38;100350.63;;;22.81;63.67
81107;BME280;70588;53.172;8.620;2023-07-29T05:36:04;100355.81;;;22.83;63.62
81107;BME280;70588;53.172;8.620;2023-07-29T05:38:30;100361.31;;;22.83;63.86
81107;BME280;70588;53.172;8.620;2023-07-29T05:40:55;100369.59;;;22.83;63.69
81107;BME280;70588;53.172;8.620;2023-07-29T05:43:21;100362.72;;;22.80;63.86
81107;BME280;70588;53.172;8.620;2023-07-29T05:45:46;100370.97;;;22.80;64.03
81107;BME280;70588;53.172;8.620;2023-07-29T05:48:11;100362.72;;;22.80;63.74
81107;BME280;70588;53.172;8.620;2023-07-29T05:50:37;100364.91;;;22.83;63.96
81107;BME280;70588;53.172;8.620;2023-07-29T05:53:02;100369.31;;;22.84;63.60
81107;BME280;70588;53.172;8.620;2023-07-29T05:55:27;100362.41;;;22.87;63.53
81107;BME280;70588;53.172;8.620;2023-07-29T05:57:53;100364.59;;;22.90;63.55
81107;BME280;70588;53.172;8.620;2023-07-29T06:00:18;100367.88;;;22.92;63.34
81107;BME280;70588;53.172;8.620;2023-07-29T06:02:44;100370.03;;;22.95;63.68
81107;BME280;70588;53.172;8.620;2023-07-29T06:05:09;100373.66;;;22.96;63.82
81107;BME280;70588;53.172;8.620;2023-07-29T06:07:35;100376.09;;;22.97;63.89
81107;BME280;70588;53.172;8.620;2023-07-29T06:10:00;100374.72;;;23.00;63.58
81107;BME280;70588;53.172;8.620;2023-07-29T06:12:26;100368.66;;;23.03;63.53
81107;BME280;70588;53.172;8.620;2023-07-29T06:14:52;100378.50;;;23.09;63.43
81107;BME280;70588;53.172;8.620;2023-07-29T06:17:17;100371.84;;;23.15;63.77
81107;BME280;70588;53.172;8.620;2023-07-29T06:19:42;100382.84;;;23.20;63.72
81107;BME280;70588;53.172;8.620;2023-07-29T06:22:09;100383.09;;;23.24;63.36
81107;BME280;70588;53.172;8.620;2023-07-29T06:24:35;100384.44;;;23.26;63.17
81107;BME280;70588;53.172;8.620;2023-07-29T06:27:00;100386.91;;;23.28;63.09
81107;BME280;70588;53.172;8.620;2023-07-29T06:29:25;100383.03;;;23.29;63.28
81107;BME280;70588;53.172;8.620;2023-07-29T06:31:51;100388.00;;;23.32;63.26
81107;BME280;70588;53.172;8.620;2023-07-29T06:34:19;100395.13;;;23.33;63.13
81107;BME280;70588;53.172;8.620;2023-07-29T06:36:45;100397.06;;;23.33;63.53
81107;BME280;70588;53.172;8.620;2023-07-29T06:39:10;100400.09;;;23.31;63.26
81107;BME280;70588;53.172;8.620;2023-07-29T06:41:36;100388.00;;;23.32;63.34
81107;BME280;70588;53.172;8.620;2023-07-29T06:44:01;100394.03;;;23.34;63.19
81107;BME280;70588;53.172;8.620;2023-07-29T06:46:26;100390.69;;;23.37;62.92
81107;BME280;70588;53.172;8.620;2023-07-29T06:48:52;100390.94;;;23.41;63.30
81107;BME280;70588;53.172;8.620;2023-07-29T06:51:17;100387.34;;;23.45;63.18
81107;BME280;70588;53.172;8.620;2023-07-29T06:53:42;100382.91;;;23.49;62.77
81107;BME280;70588;53.172;8.620;2023-07-29T06:56:08;100378.97;;;23.56;63.16
81107;BME280;70588;53.172;8.620;2023-07-29T06:58:34;100371.16;;;23.68;62.82
81107;BME280;70588;53.172;8.620;2023-07-29T07:01:00;100371.88;;;23.79;62.54
81107;BME280;70588;53.172;8.620;2023-07-29T07:03:25;100380.56;;;23.91;62.03
81107;BME280;70588;53.172;8.620;2023-07-29T07:05:51;100385.97;;;24.01;62.08
81107;BME280;70588;53.172;8.620;2023-07-29T07:08:16;100388.84;;;24.15;61.82
81107;BME280;70588;53.172;8.620;2023-07-29T07:10:41;100387.03;;;24.29;61.89
81107;BME280;70588;53.172;8.620;2023-07-29T07:13:07;100391.00;;;24.42;60.90
81107;BME280;70588;53.172;8.620;2023-07-29T07:15:32;100390.38;;;24.51;60.93
81107;BME280;70588;53.172;8.620;2023-07-29T07:17:58;100390.25;;;24.61;60.18
81107;BME280;70588;53.172;8.620;2023-07-29T07:20:23;100394.56;;;24.67;59.62
81107;BME280;70588;53.172;8.620;2023-07-29T07:22:48;100400.56;;;24.74;59.87
81107;BME280;70588;53.172;8.620;2023-07-29T07:25:14;100399.06;;;24.82;59.72
81107;BME280;70588;53.172;8.620;2023-07-29T07:27:39;100394.50;;;24.91;59.28
81107;BME280;70588;53.172;8.620;2023-07-29T07:30:05;100402.63;;;25.01;58.88
81107;BME280;70588;53.172;8.620;2023-07-29T07:32:30;100403.91;;;25.09;56.87
81107;BME280;70588;53.172;8.620;2023-07-29T07:34:56;100405.75;;;25.14;56.71
81107;BME280;70588;53.172;8.620;2023-07-29T07:37:21;100406.00;;;25.17;56.44
81107;BME280;70588;53.172;8.620;2023-07-29T07:39:47;100420.88;;;25.21;56.64
81107;BME280;70588;53.172;8.620;2023-07-29T07:42:12;100408.97;;;25.21;55.59
81107;BME280;70588;53.172;8.620;2023-07-29T07:44:38;100410.13;;;25.20;54.86
81107;BME280;70588;53.172;8.620;2023-07-29T07:47:03;100409.59;;;25.18;55.04
81107;BME280;70588;53.172;8.620;2023-07-29T07:49:28;100402.13;;;25.18;54.90
81107;BME280;70588;53.172;8.620;2023-07-29T07:51:54;100407.56;;;25.23;54.96
81107;BME280;70588;53.172;8.620;2023-07-29T07:54:19;100411.09;;;25.29;54.24
81107;BME280;70588;53.172;8.620;2023-07-29T07:56:44;100414.38;;;25.31;54.30
81107;BME280;70588;53.172;8.620;2023-07-29T07:59:11;100416.53;;;25.34;53.69
81107;BME280;70588;53.172;8.620;2023-07-29T08:01:37;100412.63;;;25.35;53.37
81107;BME280;70588;53.172;8.620;2023-07-29T08:04:03;100412.06;;;25.38;53.72
81107;BME280;70588;53.172;8.620;2023-07-29T08:06:30;100403.06;;;25.46;53.37
81107;BME280;70588;53.172;8.620;2023-07-29T08:08:56;100412.91;;;25.53;53.31
81107;BME280;70588;53.172;8.620;2023-07-29T08:11:21;100403.63;;;25.62;52.21
81107;BME280;70588;53.172;8.620;2023-07-29T08:13:46;100403.22;;;25.69;51.67
81107;BME280;70588;53.172;8.620;2023-07-29T08:16:12;100392.09;;;25.74;51.29
81107;BME280;70588;53.172;8.620;2023-07-29T08:18:37;100390.34;;;25.78;51.22
81107;BME280;70588;53.172;8.620;2023-07-29T08:21:03;100396.00;;;25.87;51.31
81107;BME280;70588;53.172;8.620;2023-07-29T08:23:32;100398.88;;;25.96;50.41
81107;BME280;70588;53.172;8.620;2023-07-29T08:25:59;100397.16;;;26.00;50.59
81107;BME280;70588;53.172;8.620;2023-07-29T08:28:28;100400.94;;;26.04;49.86
81107;BME280;70588;53.172;8.620;2023-07-29T08:30:54;100405.38;;;26.05;49.01
81107;BME280;70588;53.172;8.620;2023-07-29T08:33:20;100406.69;;;26.07;50.02
81107;BME280;70588;53.172;8.620;2023-07-29T08:35:45;100408.56;;;26.12;49.45
81107;BME280;70588;53.172;8.620;2023-07-29T08:38:10;100410.69;;;26.15;48.60
81107;BME280;70588;53.172;8.620;2023-07-29T08:40:45;100407.50;;;26.22;48.51
81107;BME280;70588;53.172;8.620;2023-07-29T08:43:11;100402.81;;;26.22;48.29
81107;BME280;70588;53.172;8.620;2023-07-29T08:45:38;100420.44;;;26.26;47.85
81107;BME280;70588;53.172;8.620;2023-07-29T08:48:07;100408.75;;;26.30;47.71
81107;BME280;70588;53.172;8.620;2023-07-29T08:50:35;100411.22;;;26.31;47.47
81107;BME280;70588;53.172;8.620;2023-07-29T08:53:04;100406.81;;;26.30;47.61
81107;BME280;70588;53.172;8.620;2023-07-29T08:55:31;100399.41;;;26.25;47.96
81107;BME280;70588;53.172;8.620;2023-07-29T08:57:57;100401.59;;;26.29;47.62
81107;BME280;70588;53.172;8.620;2023-07-29T09:00:22;100401.59;;;26.29;47.82
81107;BME280;70588;53.172;8.620;2023-07-29T09:02:48;100407.31;;;26.32;47.69
81107;BME280;70588;53.172;8.620;2023-07-29T09:05:13;100399.53;;;26.34;47.67
81107;BME280;70588;53.172;8.620;2023-07-29T09:07:39;100395.84;;;26.39;47.77
81107;BME280;70588;53.172;8.620;2023-07-29T09:10:08;100401.44;;;26.47;47.40
81107;BME280;70588;53.172;8.620;2023-07-29T09:12:35;100396.94;;;26.52;47.89
81107;BME280;70588;53.172;8.620;2023-07-29T09:15:00;100396.56;;;26.58;46.92
81107;BME280;70588;53.172;8.620;2023-07-29T09:17:25;100393.47;;;26.60;46.89
81107;BME280;70588;53.172;8.620;2023-07-29T09:19:51;100397.25;;;26.64;46.86
81107;BME280;70588;53.172;8.620;2023-07-29T09:22:20;100400.72;;;26.70;46.50
81107;BME280;70588;53.172;8.620;2023-07-29T09:24:48;100400.31;;;26.76;46.86
81107;BME280;70588;53.172;8.620;2023-07-29T09:27:24;100403.16;;;26.85;46.59
81107;BME280;70588;53.172;8.620;2023-07-29T09:29:50;100403.91;;;26.77;46.56
81107;BME280;70588;53.172;8.620;2023-07-29T09:32:23;100401.22;;;26.85;46.69
81107;BME280;70588;53.172;8.620;2023-07-29T09:34:48;100397.44;;;26.81;46.24
81107;BME280;70588;53.172;8.620;2023-07-29T09:37:21;100394.22;;;26.88;46.56
81107;BME280;70588;53.172;8.620;2023-07-29T09:39:47;100403.97;;;26.85;46.42
81107;BME280;70588;53.172;8.620;2023-07-29T09:42:20;100388.28;;;26.95;46.35
81107;BME280;70588;53.172;8.620;2023-07-29T09:44:46;100392.50;;;26.92;45.88
81107;BME280;70588;53.172;8.620;2023-07-29T09:47:31;100383.59;;;27.04;46.18
81107;BME280;70588;53.172;8.620;2023-07-29T09:49:57;100378.81;;;26.96;46.22
81107;BME280;70588;53.172;8.620;2023-07-29T09:52:22;100377.69;;;26.97;45.81
81107;BME280;70588;53.172;8.620;2023-07-29T09:54:48;100378.31;;;26.94;45.67
81107;BME280;70588;53.172;8.620;2023-07-29T09:57:16;100377.50;;;26.93;45.46
81107;BME280;70588;53.172;8.620;2023-07-29T09:59:42;100375.22;;;26.95;44.91
81107;BME280;70588;53.172;8.620;2023-07-29T10:02:13;100373.91;;;26.93;45.07
81107;BME280;70588;53.172;8.620;2023-07-29T10:04:45;100374.22;;;26.91;45.10
81107;BME280;70588;53.172;8.620;2023-07-29T10:07:12;100370.75;;;26.85;45.01
81107;BME280;70588;53.172;8.620;2023-07-29T10:09:40;100369.00;;;26.90;45.13
81107;BME280;70588;53.172;8.620;2023-07-29T10:12:06;100374.84;;;26.88;45.77
81107;BME280;70588;53.172;8.620;2023-07-29T10:14:33;100373.09;;;26.92;45.08
81107;BME280;70588;53.172;8.620;2023-07-29T10:16:59;100365.16;;;26.99;45.42
81107;BME280;70588;53.172;8.620;2023-07-29T10:19:25;100377.56;;;27.02;45.21
81107;BME280;70588;53.172;8.620;2023-07-29T10:21:51;100373.03;;;27.06;44.96
81107;BME280;70588;53.172;8.620;2023-07-29T10:24:19;100359.38;;;27.10;45.13
81107;BME280;70588;53.172;8.620;2023-07-29T10:26:49;100374.53;;;27.12;44.25
81107;BME280;70588;53.172;8.620;2023-07-29T10:29:19;100369.19;;;27.16;44.63
81107;BME280;70588;53.172;8.620;2023-07-29T10:31:45;100374.72;;;27.16;44.79
81107;BME280;70588;53.172;8.620;2023-07-29T10:34:12;100371.03;;;27.20;44.37
81107;BME280;70588;53.172;8.620;2023-07-29T10:36:38;100367.66;;;27.23;44.08
81107;BME280;70588;53.172;8.620;2023-07-29T10:39:04;100368.16;;;27.25;43.82
81107;BME280;70588;53.172;8.620;2023-07-29T10:41:57;100366.13;;;27.40;43.78
81107;BME280;70588;53.172;8.620;2023-07-29T10:47:14;100355.03;;;27.40;43.06
81107;BME280;70588;53.172;8.620;2023-07-29T10:49:41;100370.38;;;27.37;43.09
81107;BME280;70588;53.172;8.620;2023-07-29T10:52:06;100366.63;;;27.42;42.32
81107;BME280;70588;53.172;8.620;2023-07-29T10:54:42;100365.88;;;27.50;42.45
81107;BME280;70588;53.172;8.620;2023-07-29T10:57:08;100365.69;;;27.47;42.67
81107;BME280;70588;53.172;8.620;2023-07-29T10:59:37;100372.25;;;27.51;42.74
81107;BME280;70588;53.172;8.620;2023-07-29T11:02:12;100363.97;;;27.59;43.38
81107;BME280;70588;53.172;8.620;2023-07-29T11:04:48;100370.00;;;27.61;43.21
81107;BME280;70588;53.172;8.620;2023-07-29T11:12:37;100381.97;;;27.71;43.02
81107;BME280;70588;53.172;8.620;2023-07-29T11:15:11;100382.41;;;27.64;43.27
81107;BME280;70588;53.172;8.620;2023-07-29T11:17:52;100375.78;;;27.74;43.31
81107;BME280;70588;53.172;8.620;2023-07-29T11:20:23;100379.72;;;27.73;42.87
81107;BME280;70588;53.172;8.620;2023-07-29T11:22:49;100380.03;;;27.71;43.00
81107;BME280;70588;53.172;8.620;2023-07-29T11:25:17;100378.75;;;27.77;42.53
81107;BME280;70588;53.172;8.620;2023-07-29T11:27:43;100377.59;;;27.78;41.96
81107;BME280;70588;53.172;8.620;2023-07-29T11:30:10;100376.66;;;27.83;41.25
81107;BME280;70588;53.172;8.620;2023-07-29T11:32:39;100383.00;;;27.83;41.59
81107;BME280;70588;53.172;8.620;2023-07-29T11:35:10;100386.28;;;27.85;41.44
81107;BME280;70588;53.172;8.620;2023-07-29T11:37:37;100382.00;;;27.79;41.38
81107;BME280;70588;53.172;8.620;2023-07-29T11:40:03;100376.66;;;27.83;41.57
81107;BME280;70588;53.172;8.620;2023-07-29T11:42:31;100387.00;;;27.91;41.85
81107;BME280;70588;53.172;8.620;2023-07-29T11:44:57;100392.53;;;27.91;41.69
81107;BME280;70588;53.172;8.620;2023-07-29T11:47:24;100388.97;;;27.91;41.75
81107;BME280;70588;53.172;8.620;2023-07-29T11:49:49;100382.75;;;27.94;41.34
81107;BME280;70588;53.172;8.620;2023-07-29T11:52:15;100391.09;;;27.94;41.15
81107;BME280;70588;53.172;8.620;2023-07-29T11:54:44;100390.78;;;27.95;41.59
81107;BME280;70588;53.172;8.620;2023-07-29T11:57:10;100394.03;;;27.97;41.94
81107;BME280;70588;53.172;8.620;2023-07-29T11:59:37;100402.88;;;27.99;41.50
81107;BME280;70588;53.172;8.620;2023-07-29T12:02:10;100399.13;;;28.04;41.16
81107;BME280;70588;53.172;8.620;2023-07-29T12:04:37;100392.88;;;27.98;41.25
81107;BME280;70588;53.172;8.620;2023-07-29T12:07:04;100393.53;;;27.95;41.22
81107;BME280;70588;53.172;8.620;2023-07-29T12:09:29;100396.00;;;27.97;41.34
81107;BME280;70588;53.172;8.620;2023-07-29T12:11:56;100395.34;;;28.00;41.13
81107;BME280;70588;53.172;8.620;2023-07-29T12:14:21;100390.28;;;28.02;41.37
81107;BME280;70588;53.172;8.620;2023-07-29T12:16:51;100387.88;;;28.09;40.98
81107;BME280;70588;53.172;8.620;2023-07-29T12:19:17;100386.09;;;28.04;40.91
81107;BME280;70588;53.172;8.620;2023-07-29T12:21:44;100388.88;;;28.04;40.79
81107;BME280;70588;53.172;8.620;2023-07-29T12:24:10;100381.47;;;28.00;40.91
81107;BME280;70588;53.172;8.620;2023-07-29T12:26:37;100381.78;;;27.98;41.06
81107;BME280;70588;53.172;8.620;2023-07-29T12:29:12;100382.81;;;28.02;41.36
81107;BME280;70588;53.172;8.620;2023-07-29T12:31:38;100395.63;;;27.90;41.28
81107;BME280;70588;53.172;8.620;2023-07-29T12:34:03;100387.09;;;27.86;41.46
81107;BME280;70588;53.172;8.620;2023-07-29T12:36:47;100379.69;;;27.95;41.33
81107;BME280;70588;53.172;8.620;2023-07-29T12:39:19;100390.09;;;27.90;41.38
81107;BME280;70588;53.172;8.620;2023-07-29T12:41:45;100381.22;;;27.79;41.61
81107;BME280;70588;53.172;8.620;2023-07-29T12:44:11;100391.16;;;27.80;41.85
81107;BME280;70588;53.172;8.620;2023-07-29T12:46:36;100378.75;;;27.77;41.94
81107;BME280;70588;53.172;8.620;2023-07-29T12:49:02;100380.38;;;27.78;41.24
81107;BME280;70588;53.172;8.620;2023-07-29T12:51:27;100371.53;;;27.76;41.17
81107;BME280;70588;53.172;8.620;2023-07-29T12:53:53;100375.47;;;27.75;41.46
81107;BME280;70588;53.172;8.620;2023-07-29T12:56:19;100370.25;;;27.74;40.98
81107;BME280;70588;53.172;8.620;2023-07-29T12:58:44;100361.41;;;27.72;40.23
81107;BME280;70588;53.172;8.620;2023-07-29T13:01:10;100368.13;;;27.71;40.96